Time;durP1;ratioP1;P1;durP2;ratioP2;P2;SDS_P1;SDS_P2;PMS_P1;PMS_P2;Temp;Humidity;BMP_temperature;BMP_pressure;BME280_temperature;BME280_humidity;BME280_pressure;Samples;Min_cycle;Max_cycle;Signal;HPM_P1;HPM_P2
2021/04/11 00:00:23;;;;;;;0.80;0.80;;;;;;;5.17;76.62;92488.84;2098424;28;20027;-81
2021/04/11 00:01:23;;;;;;;0.90;0.60;;;;;;;5.10;77.51;92487.03;2093306;28;20067;-80
2021/04/11 00:02:24;;;;;;;0.60;0.60;;;;;;;5.09;77.57;92484.78;2101923;28;20081;-80
2021/04/11 00:03:26;;;;;;;0.77;0.50;;;;;;;5.08;77.68;92483.28;2106811;28;20081;-80
2021/04/11 00:04:27;;;;;;;1.15;0.63;;;;;;;5.10;78.51;92486.28;2097996;28;20056;-80
2021/04/11 00:05:31;;;;;;;0.52;0.52;;;;;;;5.14;77.25;92479.06;2094058;28;20107;-80
2021/04/11 00:06:32;;;;;;;0.50;0.50;;;;;;;5.04;79.43;92478.00;2103965;28;20051;-80
2021/04/11 00:07:32;;;;;;;0.50;0.50;;;;;;;5.10;78.91;92471.16;2094720;28;20760;-80
2021/04/11 00:08:33;;;;;;;0.57;0.50;;;;;;;5.14;78.20;92479.06;2090066;28;20032;-80
2021/04/11 00:09:33;;;;;;;0.73;0.50;;;;;;;5.16;77.53;92471.44;2102095;28;20036;-80
2021/04/11 00:10:38;;;;;;;0.50;0.50;;;;;;;5.07;78.13;92471.94;2098341;28;20016;-79
2021/04/11 00:11:38;;;;;;;0.50;0.50;;;;;;;5.17;77.15;92470.31;2098347;28;20095;-80
2021/04/11 00:12:39;;;;;;;0.77;0.60;;;;;;;5.19;78.36;92468.03;2098268;28;20469;-80
2021/04/11 00:13:40;;;;;;;1.15;0.50;;;;;;;5.17;77.86;92468.41;2095502;28;20103;-81
2021/04/11 00:14:40;;;;;;;0.45;0.40;;;;;;;5.16;77.44;92466.16;2098095;28;20020;-80
2021/04/11 00:15:40;;;;;;;1.35;0.43;;;;;;;5.12;78.70;92465.44;2095834;28;20025;-80
2021/04/11 00:16:41;;;;;;;0.60;0.60;;;;;;;5.18;77.30;92464.63;2106436;28;20024;-82
2021/04/11 00:17:42;;;;;;;0.50;0.50;;;;;;;5.22;78.07;92472.50;2108992;28;20069;-82
2021/04/11 00:18:42;;;;;;;0.60;0.50;;;;;;;5.18;78.77;92472.56;2098247;28;20051;-82
2021/04/11 00:19:43;;;;;;;0.50;0.50;;;;;;;5.16;77.93;92471.44;2089612;28;20017;-80
2021/04/11 00:20:44;;;;;;;0.50;0.50;;;;;;;5.09;77.76;92466.97;2081811;28;20032;-80
2021/04/11 00:21:45;;;;;;;0.43;0.43;;;;;;;5.13;78.11;92464.28;2089632;28;20516;-80
2021/04/11 00:22:46;;;;;;;0.40;0.40;;;;;;;5.18;78.24;92466.50;2098424;28;20377;-80
2021/04/11 00:23:46;;;;;;;0.47;0.47;;;;;;;5.19;77.91;92468.03;2096493;28;20064;-80
2021/04/11 00:24:47;;;;;;;0.60;0.50;;;;;;;5.21;77.93;92465.72;2102049;28;20024;-80
2021/04/11 00:25:48;;;;;;;0.50;0.50;;;;;;;5.11;79.81;92462.06;2102530;28;20039;-80
2021/04/11 00:26:48;;;;;;;0.80;0.50;;;;;;;5.20;78.79;92467.63;2102143;28;20024;-81
2021/04/11 00:27:49;;;;;;;0.60;0.40;;;;;;;5.14;79.65;92455.97;2116423;27;20039;-80
2021/04/11 00:28:49;;;;;;;0.55;0.43;;;;;;;5.21;79.69;92453.22;2113621;28;20093;-80
2021/04/11 00:29:50;;;;;;;0.40;0.40;;;;;;;5.20;78.95;92457.00;2090864;28;20033;-80
2021/04/11 00:30:50;;;;;;;0.90;0.52;;;;;;;5.18;78.06;92459.31;2105333;28;20032;-80
2021/04/11 00:31:50;;;;;;;0.43;0.40;;;;;;;5.16;78.45;92458.22;2114764;28;20105;-82
2021/04/11 00:32:57;;;;;;;0.95;0.40;;;;;;;5.23;78.40;92460.78;2090704;28;20382;-82
2021/04/11 00:33:57;;;;;;;1.58;0.50;;;;;;;5.13;79.62;92456.34;2098632;28;20425;-79
2021/04/11 00:34:58;;;;;;;0.50;0.50;;;;;;;5.21;79.80;92455.13;2106152;28;20053;-80
2021/04/11 00:36:03;;;;;;;0.73;0.70;;;;;;;5.20;79.50;92453.63;2098083;28;20032;-79
2021/04/11 00:37:03;;;;;;;0.65;0.55;;;;;;;5.09;78.90;92459.03;2103875;28;20487;-79
2021/04/11 00:38:04;;;;;;;0.60;0.60;;;;;;;5.14;78.99;92449.91;2098059;28;20024;-79
2021/04/11 00:39:05;;;;;;;0.60;0.60;;;;;;;5.11;78.17;92448.06;2097938;28;20098;-79
2021/04/11 00:40:10;;;;;;;2.03;0.60;;;;;;;5.09;78.09;92455.63;2114782;28;20023;-79
2021/04/11 00:41:25;;;;;;;0.50;0.50;;;;;;;5.11;78.56;92448.06;2105289;28;20354;-79
2021/04/11 00:42:32;;;;;;;1.08;0.50;;;;;;;5.10;79.55;92455.25;2099777;28;20029;-80
2021/04/11 00:43:32;;;;;;;0.40;0.40;;;;;;;5.05;78.47;92453.81;2094691;28;20631;-79
2021/04/11 00:44:33;;;;;;;0.80;0.60;;;;;;;5.04;78.83;92449.63;2093191;28;20024;-79
2021/04/11 00:45:54;;;;;;;0.35;0.35;;;;;;;5.01;79.81;92444.41;2084900;28;20413;-81
2021/04/11 00:46:57;;;;;;;1.63;0.50;;;;;;;5.02;79.46;92449.28;2102668;28;20066;-80
2021/04/11 00:47:58;;;;;;;0.65;0.50;;;;;;;4.94;79.47;92445.22;2090133;28;20041;-80
2021/04/11 00:49:00;;;;;;;0.55;0.50;;;;;;;4.97;78.74;92443.69;2089306;28;20025;-81
2021/04/11 00:50:06;;;;;;;0.47;0.40;;;;;;;4.96;79.06;92440.28;2089989;28;20116;-81
2021/04/11 00:51:15;;;;;;;0.50;0.43;;;;;;;4.91;78.92;92443.34;2091384;28;20070;-82
2021/04/11 00:52:17;;;;;;;0.65;0.50;;;;;;;4.88;79.53;92449.47;2097744;28;20070;-81
2021/04/11 00:53:18;;;;;;;0.45;0.45;;;;;;;4.89;79.18;92447.56;2104263;28;20365;-81
2021/04/11 00:54:18;;;;;;;0.40;0.40;;;;;;;4.85;79.32;92444.94;2106100;28;20077;-82
2021/04/11 00:55:22;;;;;;;0.50;0.50;;;;;;;4.89;79.29;92437.72;2105977;28;20019;-82
2021/04/11 00:56:22;;;;;;;0.93;0.50;;;;;;;4.86;80.21;92449.09;2110135;28;20055;-82
2021/04/11 00:57:23;;;;;;;0.50;0.50;;;;;;;4.80;80.95;92440.84;2111008;28;20097;-82
2021/04/11 00:58:26;;;;;;;0.50;0.50;;;;;;;4.81;80.96;92438.94;2106363;28;20028;-82
2021/04/11 00:59:27;;;;;;;0.50;0.50;;;;;;;4.84;80.97;92445.34;2105530;28;20024;-82
2021/04/11 01:00:33;;;;;;;0.50;0.45;;;;;;;4.84;80.75;92445.34;2089345;28;20021;-82
2021/04/11 01:01:34;;;;;;;0.80;0.43;;;;;;;4.87;80.03;92445.28;2090829;28;20088;-81
2021/04/11 01:02:37;;;;;;;0.50;0.50;;;;;;;4.84;80.17;92432.84;2089488;28;20070;-81
2021/04/11 01:03:39;;;;;;;1.10;0.52;;;;;;;4.75;81.11;92440.53;2089817;28;20490;-81
2021/04/11 01:04:40;;;;;;;0.52;0.43;;;;;;;4.73;80.98;92440.91;2097670;28;20020;-81
2021/04/11 01:05:41;;;;;;;0.47;0.47;;;;;;;4.78;81.34;92447.66;2094661;28;20586;-81
2021/04/11 01:06:51;;;;;;;0.50;0.50;;;;;;;4.76;81.41;92439.38;2096042;28;20040;-82
2021/04/11 01:07:52;;;;;;;0.57;0.47;;;;;;;4.75;80.83;92443.16;2091151;28;20028;-82
2021/04/11 01:08:54;;;;;;;0.50;0.40;;;;;;;4.76;80.75;92426.88;2092399;28;20488;-82
2021/04/11 01:09:55;;;;;;;0.82;0.60;;;;;;;4.81;80.81;92438.94;2098268;28;20035;-82
2021/04/11 01:11:07;;;;;;;0.60;0.55;;;;;;;4.77;80.80;92424.97;2098285;28;20058;-79
2021/04/11 01:12:12;;;;;;;0.57;0.50;;;;;;;4.75;81.28;92427.28;2110008;28;20071;-81
2021/04/11 01:13:13;;;;;;;0.85;0.50;;;;;;;4.75;80.37;92433.31;2099594;28;20021;-82
2021/04/11 01:14:15;;;;;;;0.52;0.52;;;;;;;4.75;81.15;92422.00;2097751;28;20666;-82
2021/04/11 01:15:21;;;;;;;0.50;0.45;;;;;;;4.77;81.14;92420.44;2098016;28;20013;-81
2021/04/11 01:16:22;;;;;;;0.52;0.52;;;;;;;4.68;81.06;92424.72;2106026;28;20843;-81
2021/04/11 01:17:24;;;;;;;0.60;0.60;;;;;;;4.71;81.19;92429.22;2102533;28;20107;-82
2021/04/11 01:18:24;;;;;;;1.58;0.50;;;;;;;4.72;81.34;92431.47;2102520;28;20410;-81
2021/04/11 01:19:31;;;;;;;0.70;0.57;;;;;;;4.66;81.36;92424.38;2109554;28;20023;-81
2021/04/11 01:20:33;;;;;;;0.32;0.32;;;;;;;4.66;80.99;92425.13;2106688;28;20499;-81
2021/04/11 01:21:47;;;;;;;0.40;0.40;;;;;;;4.66;81.48;92427.75;2106013;28;20024;-81
2021/04/11 01:22:59;;;;;;;0.35;0.35;;;;;;;4.62;81.75;92421.75;2104462;28;20050;-81
2021/04/11 01:24:12;;;;;;;1.02;0.45;;;;;;;4.57;81.79;92429.38;2099082;28;20036;-81
2021/04/11 01:25:17;;;;;;;0.40;0.40;;;;;;;4.54;80.94;92418.41;2105779;28;20158;-81
2021/04/11 01:26:19;;;;;;;0.60;0.50;;;;;;;4.53;80.80;92416.94;2103033;28;20020;-81
2021/04/11 01:27:26;;;;;;;0.70;0.57;;;;;;;4.50;80.70;92419.59;2092187;28;20039;-81
2021/04/11 01:28:37;;;;;;;0.52;0.52;;;;;;;4.46;80.55;92414.34;2099403;28;20034;-82
2021/04/11 01:29:39;;;;;;;0.50;0.50;;;;;;;4.47;80.94;92428.31;2104209;28;20036;-81
2021/04/11 01:30:41;;;;;;;0.77;0.55;;;;;;;4.44;81.82;92414.00;2097614;28;20066;-82
2021/04/11 01:31:42;;;;;;;0.40;0.40;;;;;;;4.38;81.97;92417.44;2106078;28;20728;-81
2021/04/11 01:32:43;;;;;;;1.38;0.70;;;;;;;4.38;81.96;92418.19;2107604;28;20435;-81
2021/04/11 01:33:51;;;;;;;0.77;0.60;;;;;;;4.37;81.96;92415.97;2093374;28;20021;-82
2021/04/11 01:34:57;;;;;;;0.50;0.50;;;;;;;4.36;82.07;92417.84;2092447;28;20036;-81
2021/04/11 01:35:58;;;;;;;0.75;0.60;;;;;;;4.31;83.03;92412.25;2106381;28;20587;-82
2021/04/11 01:37:00;;;;;;;3.30;0.40;;;;;;;4.31;83.96;92409.59;2097242;28;20056;-81
2021/04/11 01:38:01;;;;;;;0.40;0.40;;;;;;;4.35;83.39;92402.38;2089363;28;20111;-81
2021/04/11 01:39:09;;;;;;;0.68;0.40;;;;;;;4.29;83.23;92409.97;2105985;28;20020;-81
2021/04/11 01:40:15;;;;;;;0.60;0.60;;;;;;;4.32;83.32;92400.50;2107101;28;20028;-81
2021/04/11 01:41:28;;;;;;;0.47;0.43;;;;;;;4.28;83.98;92405.84;2105831;28;20510;-81
2021/04/11 01:42:28;;;;;;;0.82;0.47;;;;;;;4.25;83.60;92407.34;2099011;28;20055;-82
2021/04/11 01:43:29;;;;;;;1.30;0.60;;;;;;;4.20;82.56;92412.34;2101418;28;20023;-81
2021/04/11 01:44:33;;;;;;;0.65;0.60;;;;;;;4.21;82.89;92403.25;2101626;28;20024;-81
2021/04/11 01:45:37;;;;;;;1.17;0.50;;;;;;;4.21;83.26;92397.97;2106121;28;20430;-81
2021/04/11 01:46:38;;;;;;;0.57;0.50;;;;;;;4.23;83.09;92399.06;2105911;28;20067;-82
2021/04/11 01:47:38;;;;;;;0.70;0.70;;;;;;;4.22;82.47;92394.19;2097401;28;20024;-82
2021/04/11 01:48:40;;;;;;;0.50;0.50;;;;;;;4.12;83.03;92397.66;2105875;28;20031;-82
2021/04/11 01:49:45;;;;;;;0.45;0.45;;;;;;;4.13;83.19;92391.25;2100297;28;20032;-82
2021/04/11 01:50:46;;;;;;;0.50;0.50;;;;;;;4.12;83.65;92397.66;2104226;28;20027;-82
2021/04/11 01:51:55;;;;;;;0.47;0.47;;;;;;;4.11;82.75;92396.91;2091020;28;20063;-82
2021/04/11 01:52:58;;;;;;;0.52;0.52;;;;;;;4.09;82.91;92387.91;2106090;28;20028;-82
2021/04/11 01:54:00;;;;;;;0.50;0.50;;;;;;;4.10;83.06;92390.13;2097404;28;20035;-82
2021/04/11 01:55:01;;;;;;;1.40;0.50;;;;;;;3.97;84.40;92389.88;2106082;28;20024;-82
2021/04/11 01:56:03;;;;;;;0.68;0.60;;;;;;;4.07;83.96;92390.16;2105160;28;20043;-82
2021/04/11 01:57:09;;;;;;;0.93;0.63;;;;;;;4.04;84.16;92389.06;2101828;28;20074;-82
2021/04/11 01:58:12;;;;;;;0.68;0.68;;;;;;;3.97;84.08;92389.13;2097787;28;20021;-82
2021/04/11 01:59:15;;;;;;;1.05;0.50;;;;;;;4.01;84.68;92381.91;2097309;28;20024;-82
2021/04/11 02:00:36;;;;;;;0.40;0.40;;;;;;;3.93;84.06;92383.88;2099396;28;20461;-81
2021/04/11 02:01:36;;;;;;;0.50;0.50;;;;;;;3.99;84.49;92387.56;2103816;28;20067;-81
2021/04/11 02:04:28;;;;;;;0.50;0.50;;;;;;;3.99;85.19;92378.91;2135447;27;20638;-82
2021/04/11 02:05:29;;;;;;;0.65;0.50;;;;;;;3.99;85.29;92379.63;2125585;27;20072;-81
2021/04/11 02:06:35;;;;;;;0.63;0.63;;;;;;;4.00;85.90;92389.09;2109035;28;20028;-82
2021/04/11 02:07:36;;;;;;;0.60;0.50;;;;;;;4.02;85.66;92373.56;2107236;27;20024;-81
2021/04/11 02:08:40;;;;;;;1.45;0.60;;;;;;;4.00;84.79;92383.06;2118426;28;20023;-81
2021/04/11 02:09:46;;;;;;;0.70;0.55;;;;;;;4.04;84.80;92375.84;2110914;27;20027;-81
2021/04/11 02:10:51;;;;;;;1.15;0.75;;;;;;;3.97;84.87;92378.56;2115599;28;20030;-81
2021/04/11 02:11:52;;;;;;;0.50;0.50;;;;;;;3.95;84.76;92378.94;2112893;28;20031;-79
2021/04/11 02:12:53;;;;;;;0.40;0.40;;;;;;;3.96;84.79;92385.72;2107759;27;20034;-81
2021/04/11 02:13:54;;;;;;;1.48;0.70;;;;;;;3.99;85.09;92374.34;2113099;28;20724;-82
2021/04/11 02:14:54;;;;;;;0.50;0.50;;;;;;;4.00;84.58;92377.78;2113007;28;20023;-82
2021/04/11 02:15:58;;;;;;;0.85;0.68;;;;;;;3.95;84.63;92381.59;2104656;28;20035;-81
2021/04/11 02:16:59;;;;;;;0.60;0.60;;;;;;;3.99;85.30;92378.91;2105640;28;20484;-79
2021/04/11 02:17:59;;;;;;;0.60;0.55;;;;;;;3.96;85.34;92380.44;2104439;28;20062;-79
2021/04/11 02:19:04;;;;;;;0.93;0.50;;;;;;;4.01;85.39;92376.63;2112837;28;20464;-79
2021/04/11 02:20:10;;;;;;;0.68;0.60;;;;;;;4.01;84.83;92382.66;2113611;28;20034;-81
2021/04/11 02:21:19;;;;;;;0.60;0.60;;;;;;;4.00;84.66;92372.47;2105693;28;20020;-81
2021/04/11 02:22:25;;;;;;;0.68;0.50;;;;;;;4.05;83.72;92366.78;2106672;28;20384;-79
2021/04/11 02:23:27;;;;;;;0.85;0.50;;;;;;;4.03;84.52;92379.63;2102300;28;20036;-79
2021/04/11 02:24:29;;;;;;;1.75;0.60;;;;;;;4.01;85.08;92369.44;2100085;28;20051;-82
2021/04/11 02:25:35;;;;;;;0.70;0.47;;;;;;;4.04;85.00;92367.91;2108544;28;20028;-81
2021/04/11 02:26:40;;;;;;;0.75;0.52;;;;;;;3.97;85.53;92371.38;2106775;28;20051;-80
2021/04/11 02:27:41;;;;;;;0.73;0.60;;;;;;;4.01;85.48;92372.09;2099656;28;20040;-79
2021/04/11 02:28:42;;;;;;;0.40;0.40;;;;;;;4.04;84.67;92352.78;2110193;27;20051;-82
2021/04/11 02:29:45;;;;;;;0.57;0.50;;;;;;;4.10;84.91;92363.69;2106996;28;20032;-81
2021/04/11 02:30:50;;;;;;;0.82;0.60;;;;;;;4.10;84.89;92365.59;2111218;27;20027;-82
2021/04/11 02:31:51;;;;;;;0.82;0.40;;;;;;;4.09;85.61;92354.25;2114968;28;20035;-82
2021/04/11 02:32:52;;;;;;;0.50;0.50;;;;;;;4.13;85.51;92357.63;2111352;28;20020;-79
2021/04/11 02:33:58;;;;;;;0.43;0.43;;;;;;;4.16;85.29;92358.72;2108483;28;20457;-79
2021/04/11 02:35:04;;;;;;;0.95;0.50;;;;;;;4.07;85.66;92353.88;2105444;28;20020;-79
2021/04/11 02:36:05;;;;;;;1.17;0.60;;;;;;;4.16;85.31;92353.44;2097736;28;20024;-81
2021/04/11 02:37:13;;;;;;;0.50;0.50;;;;;;;4.15;84.68;92354.59;2105746;28;20073;-81
2021/04/11 02:38:14;;;;;;;0.68;0.60;;;;;;;4.11;85.60;92351.22;2116781;28;20622;-82
2021/04/11 02:39:25;;;;;;;0.57;0.57;;;;;;;4.16;85.12;92353.44;2104450;28;20070;-82
2021/04/11 02:40:31;;;;;;;0.50;0.50;;;;;;;4.17;84.69;92349.63;2103728;28;20032;-80
2021/04/11 02:41:32;;;;;;;0.47;0.47;;;;;;;4.16;84.67;92356.06;2101538;28;20394;-79
2021/04/11 02:42:35;;;;;;;1.05;0.60;;;;;;;4.21;84.06;92351.09;2099988;28;20020;-79
2021/04/11 02:43:37;;;;;;;0.75;0.75;;;;;;;4.23;84.25;92348.06;2109302;28;20504;-79
2021/04/11 02:44:40;;;;;;;0.50;0.50;;;;;;;4.20;84.63;92352.25;2116344;27;20024;-79
2021/04/11 02:45:43;;;;;;;0.50;0.50;;;;;;;4.18;85.15;92348.50;2118015;28;20476;-79
2021/04/11 02:46:44;;;;;;;0.73;0.60;;;;;;;4.24;84.35;92354.88;2104761;28;20393;-79
2021/04/11 02:47:45;;;;;;;0.50;0.50;;;;;;;4.19;85.57;92350.00;2118870;28;20042;-82
2021/04/11 02:48:47;;;;;;;1.65;0.40;;;;;;;4.18;85.12;92345.88;2114875;28;20578;-81
2021/04/11 02:49:51;;;;;;;0.82;0.60;;;;;;;4.18;84.75;92345.88;2125478;27;20391;-81
2021/04/11 02:50:51;;;;;;;2.17;0.77;;;;;;;4.21;84.68;92348.44;2119751;28;20063;-82
2021/04/11 02:51:54;;;;;;;1.15;0.65;;;;;;;4.25;84.55;92353.72;2104244;28;20024;-81
2021/04/11 02:53:20;;;;;;;0.50;0.50;;;;;;;4.18;85.79;92348.50;2096910;28;20035;-81
2021/04/11 02:54:22;;;;;;;0.55;0.55;;;;;;;4.15;86.28;92342.09;2105602;28;20030;-82
2021/04/11 02:55:25;;;;;;;1.58;0.68;;;;;;;4.24;85.51;92342.38;2112773;28;20024;-82
2021/04/11 02:56:27;;;;;;;0.57;0.57;;;;;;;4.29;84.28;92344.59;2103851;28;20035;-81
2021/04/11 02:57:28;;;;;;;1.02;0.60;;;;;;;4.26;85.24;92340.09;2100790;28;20020;-82
2021/04/11 02:58:29;;;;;;;1.13;0.70;;;;;;;4.24;84.36;92346.94;2094910;28;20024;-81
2021/04/11 02:59:29;;;;;;;1.48;0.65;;;;;;;4.25;84.35;92345.78;2108551;28;20020;-81
2021/04/11 03:00:35;;;;;;;0.40;0.40;;;;;;;4.25;84.40;92343.13;2116922;28;20077;-82
2021/04/11 03:01:40;;;;;;;0.60;0.60;;;;;;;4.31;83.46;92338.19;2118037;27;20114;-81
2021/04/11 03:02:40;;;;;;;0.60;0.60;;;;;;;4.26;84.77;92342.75;2115672;28;20015;-81
2021/04/11 03:03:41;;;;;;;0.85;0.50;;;;;;;4.29;84.96;92341.94;2109317;28;20118;-81
2021/04/11 03:04:41;;;;;;;1.10;0.70;;;;;;;4.28;85.08;92345.75;2112540;28;20023;-81
2021/04/11 03:05:42;;;;;;;0.60;0.60;;;;;;;4.27;85.42;92340.84;2101617;28;20119;-82
2021/04/11 03:06:47;;;;;;;1.17;0.50;;;;;;;4.31;85.20;92336.28;2107574;28;20110;-81
2021/04/11 03:07:55;;;;;;;0.50;0.50;;;;;;;4.32;84.55;92347.59;2114424;28;20042;-81
2021/04/11 03:08:58;;;;;;;0.80;0.80;;;;;;;4.29;84.65;92341.19;2105175;28;20625;-81
2021/04/11 03:10:08;;;;;;;0.55;0.55;;;;;;;4.29;85.02;92347.25;2104616;28;20067;-82
2021/04/11 03:11:28;;;;;;;0.60;0.60;;;;;;;4.25;84.81;92340.47;2106390;28;20055;-82
2021/04/11 03:12:28;;;;;;;0.57;0.57;;;;;;;4.27;84.80;92336.31;2098588;28;20027;-82
2021/04/11 03:13:29;;;;;;;0.50;0.50;;;;;;;4.28;84.35;92337.81;2103131;28;20035;-82
2021/04/11 03:14:34;;;;;;;0.60;0.60;;;;;;;4.33;86.00;92346.47;2100110;28;20104;-82
2021/04/11 03:15:35;;;;;;;0.60;0.60;;;;;;;4.31;85.60;92335.53;2096275;28;20105;-81
2021/04/11 03:16:38;;;;;;;0.60;0.60;;;;;;;4.30;84.76;92334.75;2099609;28;20020;-82
2021/04/11 03:17:40;;;;;;;0.60;0.60;;;;;;;4.29;85.09;92335.91;2101876;28;20026;-81
2021/04/11 03:18:41;;;;;;;0.90;0.60;;;;;;;4.30;85.05;92340.06;2095633;28;20111;-82
2021/04/11 03:19:54;;;;;;;0.60;0.57;;;;;;;4.31;85.25;92340.81;2092968;28;20055;-81
2021/04/11 03:20:57;;;;;;;0.68;0.60;;;;;;;4.23;85.54;92337.50;2107622;28;20024;-82
2021/04/11 03:21:58;;;;;;;0.82;0.40;;;;;;;4.29;85.05;92341.19;2091126;28;20028;-81
2021/04/11 03:22:59;;;;;;;0.50;0.50;;;;;;;4.19;86.49;92344.72;2097793;28;20027;-81
2021/04/11 03:24:00;;;;;;;0.77;0.60;;;;;;;4.20;86.26;92336.38;2098483;28;20480;-81
2021/04/11 03:25:00;;;;;;;0.70;0.70;;;;;;;4.24;86.12;92333.69;2106896;28;20040;-82
2021/04/11 03:26:11;;;;;;;0.63;0.63;;;;;;;4.20;85.98;92332.97;2102090;28;20024;-82
2021/04/11 03:27:17;;;;;;;0.65;0.50;;;;;;;4.21;85.68;92337.13;2102038;27;20035;-81
2021/04/11 03:28:43;;;;;;;0.60;0.60;;;;;;;4.21;85.99;92334.47;2113600;28;20039;-82
2021/04/11 03:29:52;;;;;;;0.52;0.52;;;;;;;4.22;85.67;92331.47;2092776;28;20040;-81
2021/04/11 03:31:15;;;;;;;0.50;0.50;;;;;;;4.21;85.84;92334.47;2108167;28;20032;-82
2021/04/11 03:32:28;;;;;;;0.65;0.60;;;;;;;4.27;85.56;92338.22;2097046;28;20025;-81
2021/04/11 03:33:34;;;;;;;1.10;0.60;;;;;;;4.28;85.38;92337.06;2104431;28;20066;-82
2021/04/11 03:34:37;;;;;;;0.60;0.60;;;;;;;4.28;85.09;92334.41;2103467;28;20480;-81
2021/04/11 03:35:39;;;;;;;0.98;0.60;;;;;;;4.25;85.03;92333.28;2102564;28;20024;-82
2021/04/11 03:36:41;;;;;;;1.15;0.65;;;;;;;4.21;85.68;92329.19;2106117;28;20055;-82
2021/04/11 03:37:43;;;;;;;0.50;0.50;;;;;;;4.22;85.51;92323.53;2101292;28;20020;-81
2021/04/11 03:38:46;;;;;;;0.57;0.57;;;;;;;4.23;85.29;92329.56;2102573;28;20024;-82
2021/04/11 03:39:47;;;;;;;0.60;0.60;;;;;;;4.22;85.08;92328.06;2115455;27;20486;-82
2021/04/11 03:40:52;;;;;;;0.50;0.50;;;;;;;4.17;86.45;92326.59;2108892;28;20027;-82
2021/04/11 03:41:52;;;;;;;1.05;0.60;;;;;;;4.16;86.18;92334.91;2110698;28;21433;-82
2021/04/11 03:42:59;;;;;;;0.52;0.50;;;;;;;4.12;86.32;92336.84;2112581;28;20084;-82
2021/04/11 03:44:06;;;;;;;0.82;0.50;;;;;;;4.13;85.60;92335.72;2099882;28;20032;-82
2021/04/11 03:45:07;;;;;;;0.60;0.60;;;;;;;4.08;85.82;92330.84;2092375;28;20029;-82
2021/04/11 03:46:34;;;;;;;0.60;0.60;;;;;;;4.11;84.54;92344.03;2105707;28;20123;-82
2021/04/11 03:47:40;;;;;;;0.50;0.50;;;;;;;4.09;85.53;92342.94;2099222;28;20035;-82
2021/04/11 03:48:47;;;;;;;1.48;0.60;;;;;;;4.07;85.74;92340.66;2109975;28;20032;-82
2021/04/11 03:49:53;;;;;;;0.68;0.40;;;;;;;3.99;85.85;92333.94;2098826;28;20060;-82
2021/04/11 03:51:01;;;;;;;0.60;0.60;;;;;;;3.99;85.97;92339.22;2107138;28;20055;-82
2021/04/11 03:52:11;;;;;;;0.60;0.57;;;;;;;3.97;86.32;92333.59;2106478;28;20107;-82
2021/04/11 03:53:26;;;;;;;1.42;0.63;;;;;;;3.95;86.77;92339.28;2101192;28;20031;-82
2021/04/11 03:54:35;;;;;;;0.60;0.60;;;;;;;3.97;84.95;92334.34;2106689;28;20019;-82
2021/04/11 03:55:40;;;;;;;0.52;0.40;;;;;;;3.98;85.16;92332.44;2093883;28;20024;-82
2021/04/11 03:56:48;;;;;;;0.50;0.50;;;;;;;3.95;85.44;92331.38;2107446;27;20469;-82
2021/04/11 03:57:53;;;;;;;0.60;0.60;;;;;;;3.93;85.61;92333.63;2100100;28;20116;-82
2021/04/11 03:58:58;;;;;;;0.70;0.70;;;;;;;4.00;85.33;92336.22;2082664;28;20017;-82
2021/04/11 04:00:11;;;;;;;0.75;0.50;;;;;;;3.90;85.79;92325.72;2082875;28;20467;-81
2021/04/11 04:01:26;;;;;;;0.82;0.50;;;;;;;4.00;85.63;92338.13;2095851;27;20074;-81
2021/04/11 04:02:28;;;;;;;1.15;0.50;;;;;;;3.91;85.92;92335.19;2103067;28;20028;-81
2021/04/11 04:03:31;;;;;;;0.60;0.60;;;;;;;3.89;86.61;92335.56;2097214;27;20028;-82
2021/04/11 04:04:34;;;;;;;1.27;0.65;;;;;;;3.87;86.50;92335.22;2111247;28;20063;-81
2021/04/11 04:05:36;;;;;;;0.50;0.50;;;;;;;3.81;87.09;92339.41;2102924;28;20020;-81
2021/04/11 04:06:37;;;;;;;0.50;0.50;;;;;;;3.81;86.80;92342.03;2091423;28;20028;-82
2021/04/11 04:07:55;;;;;;;0.98;0.60;;;;;;;3.70;87.00;92341.41;2087378;28;20048;-82
2021/04/11 04:08:56;;;;;;;0.50;0.50;;;;;;;3.72;86.07;92336.47;2097512;28;20115;-82
2021/04/11 04:10:01;;;;;;;0.38;0.38;;;;;;;3.69;87.37;92342.56;2098290;28;20031;-82
2021/04/11 04:11:21;;;;;;;0.70;0.50;;;;;;;3.61;87.81;92339.22;2098706;28;20119;-82
2021/04/11 04:12:36;;;;;;;0.90;0.60;;;;;;;3.69;87.79;92340.66;2095054;28;20028;-82
2021/04/11 04:14:19;;;;;;;0.55;0.55;;;;;;;3.78;87.65;92334.91;2091685;28;20123;-81
2021/04/11 04:15:33;;;;;;;0.82;0.70;;;;;;;3.78;86.89;92332.28;2101397;28;20069;-82
2021/04/11 04:16:52;;;;;;;0.50;0.50;;;;;;;3.75;87.03;92336.44;2100566;28;20031;-81
2021/04/11 04:18:23;;;;;;;0.85;0.60;;;;;;;3.78;87.40;92334.91;2112199;28;20035;-82
2021/04/11 04:19:32;;;;;;;0.50;0.50;;;;;;;3.70;87.75;92334.22;2100751;28;20024;-81
2021/04/11 04:20:42;;;;;;;0.50;0.50;;;;;;;3.70;88.07;92328.19;2096114;28;20021;-81
2021/04/11 04:21:44;;;;;;;0.50;0.50;;;;;;;3.66;88.67;92341.44;2097607;28;20381;-81
2021/04/11 04:23:04;;;;;;;0.50;0.50;;;;;;;3.63;88.32;92341.44;2100743;28;20056;-81
2021/04/11 04:24:32;;;;;;;0.52;0.52;;;;;;;3.72;87.50;92337.22;2092615;28;20028;-82
2021/04/11 04:25:48;;;;;;;1.20;0.60;;;;;;;3.76;87.32;92340.56;2101285;28;20061;-81
2021/04/11 04:26:56;;;;;;;0.68;0.50;;;;;;;3.75;87.67;92338.34;2106051;28;20738;-82
2021/04/11 04:28:11;;;;;;;0.60;0.60;;;;;;;3.80;87.31;92337.91;2102574;28;20398;-81
2021/04/11 04:29:29;;;;;;;0.55;0.55;;;;;;;3.83;86.70;92344.31;2087557;28;20034;-82
2021/04/11 04:30:56;;;;;;;0.60;0.60;;;;;;;3.79;87.30;92342.44;2104995;28;20484;-82
2021/04/11 04:32:15;;;;;;;0.57;0.52;;;;;;;3.77;88.24;92339.44;2112576;27;20031;-82
2021/04/11 04:33:30;;;;;;;0.40;0.40;;;;;;;3.79;87.88;92334.53;2102237;28;20020;-82
2021/04/11 04:35:11;;;;;;;1.17;0.60;;;;;;;3.86;87.50;92338.97;2096971;28;20044;-82
2021/04/11 04:36:32;;;;;;;0.50;0.50;;;;;;;3.89;87.20;92346.13;2104287;28;20028;-81
2021/04/11 04:38:00;;;;;;;0.57;0.57;;;;;;;3.86;87.72;92341.63;2107516;27;20085;-81
2021/04/11 04:39:24;;;;;;;0.50;0.50;;;;;;;3.82;88.02;92340.16;2122373;27;20087;-82
2021/04/11 04:40:47;;;;;;;0.73;0.60;;;;;;;3.83;87.85;92346.97;2109600;28;20019;-81
2021/04/11 04:42:07;;;;;;;1.25;0.60;;;;;;;3.83;88.16;92339.03;2099062;28;20548;-81
2021/04/11 04:43:45;;;;;;;1.02;0.65;;;;;;;3.83;88.21;92345.06;2112636;27;20084;-81
2021/04/11 04:45:05;;;;;;;0.50;0.50;;;;;;;3.89;87.94;92343.47;2098057;28;20087;-82
2021/04/11 04:46:24;;;;;;;1.70;0.50;;;;;;;3.88;87.43;92338.59;2103191;28;20029;-81
2021/04/11 04:47:52;;;;;;;0.60;0.60;;;;;;;3.84;87.93;92343.16;2105599;27;20028;-81
2021/04/11 04:49:27;;;;;;;1.25;0.50;;;;;;;3.87;87.81;92345.03;2095596;28;20370;-81
2021/04/11 04:50:33;;;;;;;0.60;0.60;;;;;;;3.86;88.09;92341.63;2101038;28;20035;-81
2021/04/11 04:51:42;;;;;;;0.60;0.60;;;;;;;3.88;87.65;92342.00;2097957;28;20016;-81
2021/04/11 04:52:51;;;;;;;1.25;0.50;;;;;;;3.89;88.41;92340.84;2106411;28;20027;-81
2021/04/11 04:53:57;;;;;;;0.55;0.50;;;;;;;3.93;87.93;92336.28;2099996;28;20081;-81
2021/04/11 04:55:00;;;;;;;0.52;0.52;;;;;;;3.92;87.96;92331.38;2094775;28;20028;-81
2021/04/11 04:56:05;;;;;;;0.50;0.50;;;;;;;3.92;87.70;92332.13;2095718;28;20025;-81
2021/04/11 04:57:22;;;;;;;0.70;0.52;;;;;;;3.99;88.01;92337.34;2098690;28;20324;-81
2021/04/11 04:58:33;;;;;;;0.95;0.50;;;;;;;3.97;88.10;92339.63;2107723;27;20498;-82
2021/04/11 04:59:42;;;;;;;0.57;0.57;;;;;;;4.02;87.24;92338.47;2099794;28;20071;-82
2021/04/11 05:00:53;;;;;;;1.48;0.70;;;;;;;4.09;87.35;92332.38;2099680;28;20535;-82
2021/04/11 05:02:06;;;;;;;0.40;0.40;;;;;;;4.08;87.43;92330.84;2101956;28;20032;-82
2021/04/11 05:03:29;;;;;;;0.68;0.68;;;;;;;4.15;86.65;92325.50;2102010;28;20129;-82
2021/04/11 05:04:33;;;;;;;0.75;0.70;;;;;;;4.12;87.05;92334.19;2098277;28;20097;-82
2021/04/11 05:05:40;;;;;;;0.60;0.60;;;;;;;4.12;87.32;92336.84;2104436;28;20047;-82
2021/04/11 05:06:45;;;;;;;0.60;0.60;;;;;;;4.07;87.65;92332.72;2095426;28;20512;-81
2021/04/11 05:07:56;;;;;;;0.63;0.63;;;;;;;4.06;87.46;92341.06;2098164;28;20032;-81
2021/04/11 05:09:28;;;;;;;0.73;0.70;;;;;;;4.11;86.58;92338.75;2102862;28;20036;-81
2021/04/11 05:10:39;;;;;;;0.50;0.50;;;;;;;4.12;87.91;92339.50;2102090;28;20023;-81
2021/04/11 05:11:45;;;;;;;0.50;0.50;;;;;;;4.11;88.00;92340.63;2099609;28;20043;-81
2021/04/11 05:13:07;;;;;;;0.60;0.60;;;;;;;4.12;88.42;92337.59;2091007;27;20132;-81
2021/04/11 05:14:16;;;;;;;0.88;0.50;;;;;;;4.15;87.27;92341.34;2110904;28;20069;-81
2021/04/11 05:15:21;;;;;;;0.50;0.50;;;;;;;4.24;88.13;92344.28;2107690;27;20019;-82
2021/04/11 05:16:35;;;;;;;0.60;0.60;;;;;;;4.20;87.11;92346.22;2101086;28;20040;-82
2021/04/11 05:17:39;;;;;;;0.60;0.60;;;;;;;4.18;86.88;92346.63;2108402;27;20024;-81